sensor_id;sensor_type;location;lat;lon;timestamp;temperature;humidity
16958;DHT22;8595;52.542;11.974;2023-09-19T00:00:25;19.30;99.90
16958;DHT22;8595;52.542;11.974;2023-09-19T00:02:53;19.40;99.90
16958;DHT22;8595;52.542;11.974;2023-09-19T00:05:21;19.50;99.90
16958;DHT22;8595;52.542;11.974;2023-09-19T00:07:50;19.50;99.90
16958;DHT22;8595;52.542;11.974;2023-09-19T00:10:19;19.50;99.90
16958;DHT22;8595;52.542;11.974;2023-09-19T00:12:47;19.50;99.90
16958;DHT22;8595;52.542;11.974;2023-09-19T00:15:14;19.60;99.90
16958;DHT22;8595;52.542;11.974;2023-09-19T00:17:43;19.50;99.90
16958;DHT22;8595;52.542;11.974;2023-09-19T00:20:10;19.50;99.90
16958;DHT22;8595;52.542;11.974;2023-09-19T00:22:40;19.60;99.90
16958;DHT22;8595;52.542;11.974;2023-09-19T00:25:08;19.60;99.90
16958;DHT22;8595;52.542;11.974;2023-09-19T00:27:37;19.60;99.90
16958;DHT22;8595;52.542;11.974;2023-09-19T00:30:08;19.70;99.90
16958;DHT22;8595;52.542;11.974;2023-09-19T00:32:40;19.70;99.90
16958;DHT22;8595;52.542;11.974;2023-09-19T00:35:07;19.60;99.90
16958;DHT22;8595;52.542;11.974;2023-09-19T00:37:35;19.50;99.90
16958;DHT22;8595;52.542;11.974;2023-09-19T00:40:04;19.50;99.90
16958;DHT22;8595;52.542;11.974;2023-09-19T00:42:31;19.40;99.90
16958;DHT22;8595;52.542;11.974;2023-09-19T00:44:59;19.50;99.90
16958;DHT22;8595;52.542;11.974;2023-09-19T00:47:29;19.50;99.90
16958;DHT22;8595;52.542;11.974;2023-09-19T00:49:56;19.30;99.90
16958;DHT22;8595;52.542;11.974;2023-09-19T00:52:23;19.30;99.90
16958;DHT22;8595;52.542;11.974;2023-09-19T00:54:50;19.30;99.90
16958;DHT22;8595;52.542;11.974;2023-09-19T00:57:19;19.30;99.90
16958;DHT22;8595;52.542;11.974;2023-09-19T00:59:48;19.30;99.90
16958;DHT22;8595;52.542;11.974;2023-09-19T01:02:17;19.20;99.90
16958;DHT22;8595;52.542;11.974;2023-09-19T01:04:44;19.20;99.90
16958;DHT22;8595;52.542;11.974;2023-09-19T01:07:11;19.10;99.90
16958;DHT22;8595;52.542;11.974;2023-09-19T01:09:40;19.10;99.90
16958;DHT22;8595;52.542;11.974;2023-09-19T01:12:08;19.00;99.90
16958;DHT22;8595;52.542;11.974;2023-09-19T01:14:43;18.90;99.90
16958;DHT22;8595;52.542;11.974;2023-09-19T01:17:17;18.60;99.90
16958;DHT22;8595;52.542;11.974;2023-09-19T01:20:08;18.50;99.90
16958;DHT22;8595;52.542;11.974;2023-09-19T01:22:46;18.50;99.90
16958;DHT22;8595;52.542;11.974;2023-09-19T01:28:27;18.40;99.90
16958;DHT22;8595;52.542;11.974;2023-09-19T01:30:58;18.40;99.90
16958;DHT22;8595;52.542;11.974;2023-09-19T01:33:26;18.30;99.90
16958;DHT22;8595;52.542;11.974;2023-09-19T01:35:53;18.20;99.90
16958;DHT22;8595;52.542;11.974;2023-09-19T01:38:23;18.20;99.90
16958;DHT22;8595;52.542;11.974;2023-09-19T01:40:57;18.20;99.90
16958;DHT22;8595;52.542;11.974;2023-09-19T01:43:32;18.20;99.90
16958;DHT22;8595;52.542;11.974;2023-09-19T01:46:05;18.20;99.90
16958;DHT22;8595;52.542;11.974;2023-09-19T01:48:38;18.10;99.90
16958;DHT22;8595;52.542;11.974;2023-09-19T01:51:09;18.10;99.90
16958;DHT22;8595;52.542;11.974;2023-09-19T01:53:42;18.00;99.90
16958;DHT22;8595;52.542;11.974;2023-09-19T01:56:16;18.00;99.90
16958;DHT22;8595;52.542;11.974;2023-09-19T01:58:46;17.90;99.90
16958;DHT22;8595;52.542;11.974;2023-09-19T02:01:19;17.90;99.90
16958;DHT22;8595;52.542;11.974;2023-09-19T02:03:47;17.90;99.90
16958;DHT22;8595;52.542;11.974;2023-09-19T02:06:15;17.80;99.90
16958;DHT22;8595;52.542;11.974;2023-09-19T02:08:43;17.80;99.90
16958;DHT22;8595;52.542;11.974;2023-09-19T02:11:10;17.70;99.90
16958;DHT22;8595;52.542;11.974;2023-09-19T02:13:37;17.70;99.90
16958;DHT22;8595;52.542;11.974;2023-09-19T02:16:04;17.80;99.90
16958;DHT22;8595;52.542;11.974;2023-09-19T02:18:33;17.70;99.90
16958;DHT22;8595;52.542;11.974;2023-09-19T02:21:05;17.70;99.90
16958;DHT22;8595;52.542;11.974;2023-09-19T02:27:15;17.80;99.90
16958;DHT22;8595;52.542;11.974;2023-09-19T02:29:48;17.80;99.90
16958;DHT22;8595;52.542;11.974;2023-09-19T02:39:09;17.60;99.90
16958;DHT22;8595;52.542;11.974;2023-09-19T02:41:36;17.50;99.90
16958;DHT22;8595;52.542;11.974;2023-09-19T02:44:06;17.50;99.90
16958;DHT22;8595;52.542;11.974;2023-09-19T02:46:40;17.50;99.90
16958;DHT22;8595;52.542;11.974;2023-09-19T02:52:36;17.40;99.90
16958;DHT22;8595;52.542;11.974;2023-09-19T02:55:08;17.40;99.90
16958;DHT22;8595;52.542;11.974;2023-09-19T02:57:42;17.40;99.90
16958;DHT22;8595;52.542;11.974;2023-09-19T03:00:14;17.30;99.90
16958;DHT22;8595;52.542;11.974;2023-09-19T03:02:42;17.30;99.90
16958;DHT22;8595;52.542;11.974;2023-09-19T03:21:59;17.10;99.90
16958;DHT22;8595;52.542;11.974;2023-09-19T03:24:28;16.90;99.90
16958;DHT22;8595;52.542;11.974;2023-09-19T03:26:55;17.00;99.90
16958;DHT22;8595;52.542;11.974;2023-09-19T03:29:37;17.10;99.90
16958;DHT22;8595;52.542;11.974;2023-09-19T03:49:38;17.00;99.90
16958;DHT22;8595;52.542;11.974;2023-09-19T03:52:07;16.90;99.90
16958;DHT22;8595;52.542;11.974;2023-09-19T03:54:43;16.90;99.90
16958;DHT22;8595;52.542;11.974;2023-09-19T03:57:09;16.80;99.90
16958;DHT22;8595;52.542;11.974;2023-09-19T03:59:50;16.80;99.90
16958;DHT22;8595;52.542;11.974;2023-09-19T04:19:15;16.70;99.90
16958;DHT22;8595;52.542;11.974;2023-09-19T04:21:50;16.60;99.90
16958;DHT22;8595;52.542;11.974;2023-09-19T04:24:21;16.50;99.90
16958;DHT22;8595;52.542;11.974;2023-09-19T04:26:50;16.50;99.90
16958;DHT22;8595;52.542;11.974;2023-09-19T04:29:23;16.50;99.90
16958;DHT22;8595;52.542;11.974;2023-09-19T04:31:56;16.50;99.90
16958;DHT22;8595;52.542;11.974;2023-09-19T04:34:29;16.50;99.90
16958;DHT22;8595;52.542;11.974;2023-09-19T04:37:04;16.40;99.90
16958;DHT22;8595;52.542;11.974;2023-09-19T04:39:33;16.40;99.90
16958;DHT22;8595;52.542;11.974;2023-09-19T04:42:01;16.40;99.90
16958;DHT22;8595;52.542;11.974;2023-09-19T04:44:50;16.30;99.90
16958;DHT22;8595;52.542;11.974;2023-09-19T04:47:26;16.40;99.90
16958;DHT22;8595;52.542;11.974;2023-09-19T04:50:36;16.40;99.90
16958;DHT22;8595;52.542;11.974;2023-09-19T04:53:08;16.30;99.90
16958;DHT22;8595;52.542;11.974;2023-09-19T04:55:58;16.30;99.90
16958;DHT22;8595;52.542;11.974;2023-09-19T04:59:00;16.30;99.90
16958;DHT22;8595;52.542;11.974;2023-09-19T05:02:04;16.30;99.90
16958;DHT22;8595;52.542;11.974;2023-09-19T05:04:47;16.30;99.90
16958;DHT22;8595;52.542;11.974;2023-09-19T05:23:33;16.40;99.90
16958;DHT22;8595;52.542;11.974;2023-09-19T05:26:00;16.30;99.90
16958;DHT22;8595;52.542;11.974;2023-09-19T05:28:27;16.40;99.90
16958;DHT22;8595;52.542;11.974;2023-09-19T05:30:55;16.40;99.90
16958;DHT22;8595;52.542;11.974;2023-09-19T05:33:24;16.40;99.90
16958;DHT22;8595;52.542;11.974;2023-09-19T05:35:52;16.50;99.90
16958;DHT22;8595;52.542;11.974;2023-09-19T05:38:19;16.50;99.90
16958;DHT22;8595;52.542;11.974;2023-09-19T05:40:47;16.60;99.90
16958;DHT22;8595;52.542;11.974;2023-09-19T05:43:14;16.60;99.90
16958;DHT22;8595;52.542;11.974;2023-09-19T05:45:41;16.70;99.90
16958;DHT22;8595;52.542;11.974;2023-09-19T05:48:09;16.70;99.90
16958;DHT22;8595;52.542;11.974;2023-09-19T05:50:36;16.80;99.90
16958;DHT22;8595;52.542;11.974;2023-09-19T05:53:03;16.80;99.90
16958;DHT22;8595;52.542;11.974;2023-09-19T05:55:32;16.90;99.90
16958;DHT22;8595;52.542;11.974;2023-09-19T05:58:02;16.90;99.90
16958;DHT22;8595;52.542;11.974;2023-09-19T06:00:33;16.90;99.90
16958;DHT22;8595;52.542;11.974;2023-09-19T06:03:00;17.00;99.90
16958;DHT22;8595;52.542;11.974;2023-09-19T06:05:43;16.80;99.90
16958;DHT22;8595;52.542;11.974;2023-09-19T06:08:32;16.90;99.90
16958;DHT22;8595;52.542;11.974;2023-09-19T06:12:05;16.90;99.90
16958;DHT22;8595;52.542;11.974;2023-09-19T06:27:32;16.90;99.90
16958;DHT22;8595;52.542;11.974;2023-09-19T06:30:01;17.00;99.90
16958;DHT22;8595;52.542;11.974;2023-09-19T06:32:29;17.00;99.90
16958;DHT22;8595;52.542;11.974;2023-09-19T06:34:55;17.00;99.90
16958;DHT22;8595;52.542;11.974;2023-09-19T06:37:26;17.00;99.90
16958;DHT22;8595;52.542;11.974;2023-09-19T06:39:54;17.00;99.90
16958;DHT22;8595;52.542;11.974;2023-09-19T06:42:20;16.90;99.90
16958;DHT22;8595;52.542;11.974;2023-09-19T06:44:48;17.00;99.90
16958;DHT22;8595;52.542;11.974;2023-09-19T06:47:15;17.00;99.90
16958;DHT22;8595;52.542;11.974;2023-09-19T06:49:42;17.00;99.90
16958;DHT22;8595;52.542;11.974;2023-09-19T06:52:10;17.00;99.90
16958;DHT22;8595;52.542;11.974;2023-09-19T06:54:38;17.00;99.90
16958;DHT22;8595;52.542;11.974;2023-09-19T06:57:05;16.90;99.90
16958;DHT22;8595;52.542;11.974;2023-09-19T06:59:35;16.90;99.90
16958;DHT22;8595;52.542;11.974;2023-09-19T07:02:03;17.00;99.90
16958;DHT22;8595;52.542;11.974;2023-09-19T07:04:31;17.10;99.90
16958;DHT22;8595;52.542;11.974;2023-09-19T07:06:58;17.00;99.90
16958;DHT22;8595;52.542;11.974;2023-09-19T07:09:25;17.00;99.90
16958;DHT22;8595;52.542;11.974;2023-09-19T07:11:54;16.90;99.90
16958;DHT22;8595;52.542;11.974;2023-09-19T07:14:22;17.00;99.90
16958;DHT22;8595;52.542;11.974;2023-09-19T07:16:49;17.00;99.90
16958;DHT22;8595;52.542;11.974;2023-09-19T07:19:17;16.80;99.90
16958;DHT22;8595;52.542;11.974;2023-09-19T07:21:44;16.90;99.90
16958;DHT22;8595;52.542;11.974;2023-09-19T07:24:13;16.90;99.90
16958;DHT22;8595;52.542;11.974;2023-09-19T07:26:39;17.00;99.90
16958;DHT22;8595;52.542;11.974;2023-09-19T07:29:09;17.10;99.90
16958;DHT22;8595;52.542;11.974;2023-09-19T07:31:35;17.20;99.90
16958;DHT22;8595;52.542;11.974;2023-09-19T07:34:02;17.20;99.90
16958;DHT22;8595;52.542;11.974;2023-09-19T07:36:34;17.30;99.90
16958;DHT22;8595;52.542;11.974;2023-09-19T07:39:03;17.40;99.90
16958;DHT22;8595;52.542;11.974;2023-09-19T07:41:32;17.90;99.90
16958;DHT22;8595;52.542;11.974;2023-09-19T07:43:59;18.90;99.90
16958;DHT22;8595;52.542;11.974;2023-09-19T07:46:27;19.60;99.90
16958;DHT22;8595;52.542;11.974;2023-09-19T07:48:56;20.00;99.90
16958;DHT22;8595;52.542;11.974;2023-09-19T07:51:23;20.50;99.90
16958;DHT22;8595;52.542;11.974;2023-09-19T07:53:49;20.70;99.90
16958;DHT22;8595;52.542;11.974;2023-09-19T07:56:16;20.60;99.90
16958;DHT22;8595;52.542;11.974;2023-09-19T07:58:45;20.70;99.90
16958;DHT22;8595;52.542;11.974;2023-09-19T08:01:12;21.20;99.90
16958;DHT22;8595;52.542;11.974;2023-09-19T08:03:40;21.40;99.90
16958;DHT22;8595;52.542;11.974;2023-09-19T08:06:09;21.20;99.90
16958;DHT22;8595;52.542;11.974;2023-09-19T08:08:36;21.00;99.90
16958;DHT22;8595;52.542;11.974;2023-09-19T08:11:03;20.90;99.90
16958;DHT22;8595;52.542;11.974;2023-09-19T08:13:36;21.10;99.90
16958;DHT22;8595;52.542;11.974;2023-09-19T08:16:03;21.30;99.90
16958;DHT22;8595;52.542;11.974;2023-09-19T08:18:30;20.90;99.90
16958;DHT22;8595;52.542;11.974;2023-09-19T08:20:58;20.20;99.90
16958;DHT22;8595;52.542;11.974;2023-09-19T08:23:26;20.40;99.90
16958;DHT22;8595;52.542;11.974;2023-09-19T08:25:56;20.20;99.90
16958;DHT22;8595;52.542;11.974;2023-09-19T08:28:23;20.10;99.90
16958;DHT22;8595;52.542;11.974;2023-09-19T08:30:50;20.30;99.90
16958;DHT22;8595;52.542;11.974;2023-09-19T08:33:18;20.50;99.90
16958;DHT22;8595;52.542;11.974;2023-09-19T08:35:45;20.20;99.90
16958;DHT22;8595;52.542;11.974;2023-09-19T08:38:13;20.40;99.90
16958;DHT22;8595;52.542;11.974;2023-09-19T08:40:41;20.90;99.90
16958;DHT22;8595;52.542;11.974;2023-09-19T08:43:09;21.20;99.90
16958;DHT22;8595;52.542;11.974;2023-09-19T08:45:36;21.40;99.90
16958;DHT22;8595;52.542;11.974;2023-09-19T08:48:22;21.70;99.90
16958;DHT22;8595;52.542;11.974;2023-09-19T08:50:54;22.20;99.90
16958;DHT22;8595;52.542;11.974;2023-09-19T08:53:33;22.00;99.90
16958;DHT22;8595;52.542;11.974;2023-09-19T08:56:01;22.00;99.90
16958;DHT22;8595;52.542;11.974;2023-09-19T08:58:34;22.40;99.90
16958;DHT22;8595;52.542;11.974;2023-09-19T09:01:01;22.40;99.90
16958;DHT22;8595;52.542;11.974;2023-09-19T09:26:59;22.10;99.90
16958;DHT22;8595;52.542;11.974;2023-09-19T09:29:45;22.30;99.90
16958;DHT22;8595;52.542;11.974;2023-09-19T09:32:23;22.50;99.90
16958;DHT22;8595;52.542;11.974;2023-09-19T09:34:52;22.70;99.90
16958;DHT22;8595;52.542;11.974;2023-09-19T09:37:20;22.70;99.90
16958;DHT22;8595;52.542;11.974;2023-09-19T09:39:51;22.90;99.90
16958;DHT22;8595;52.542;11.974;2023-09-19T09:42:32;23.40;99.90
16958;DHT22;8595;52.542;11.974;2023-09-19T09:45:16;23.20;99.90
16958;DHT22;8595;52.542;11.974;2023-09-19T09:47:46;23.30;99.90
16958;DHT22;8595;52.542;11.974;2023-09-19T09:50:25;23.30;99.90
16958;DHT22;8595;52.542;11.974;2023-09-19T09:52:55;22.70;99.90
16958;DHT22;8595;52.542;11.974;2023-09-19T09:55:57;22.70;99.90
16958;DHT22;8595;52.542;11.974;2023-09-19T09:58:25;23.10;99.90
16958;DHT22;8595;52.542;11.974;2023-09-19T10:00:55;22.60;99.90
16958;DHT22;8595;52.542;11.974;2023-09-19T10:03:31;22.40;99.90
16958;DHT22;8595;52.542;11.974;2023-09-19T10:06:00;22.90;99.90
16958;DHT22;8595;52.542;11.974;2023-09-19T10:09:01;23.10;99.90
16958;DHT22;8595;52.542;11.974;2023-09-19T10:11:40;22.90;99.90
16958;DHT22;8595;52.542;11.974;2023-09-19T10:30:46;23.30;99.90
16958;DHT22;8595;52.542;11.974;2023-09-19T10:33:18;23.20;99.90
16958;DHT22;8595;52.542;11.974;2023-09-19T10:35:47;22.70;99.90
16958;DHT22;8595;52.542;11.974;2023-09-19T10:38:17;22.60;99.90
16958;DHT22;8595;52.542;11.974;2023-09-19T10:40:44;22.40;99.90
16958;DHT22;8595;52.542;11.974;2023-09-19T10:43:16;22.30;99.90
16958;DHT22;8595;52.542;11.974;2023-09-19T10:45:46;22.40;99.90
16958;DHT22;8595;52.542;11.974;2023-09-19T10:48:15;22.40;99.90
16958;DHT22;8595;52.542;11.974;2023-09-19T10:50:50;22.50;99.90
16958;DHT22;8595;52.542;11.974;2023-09-19T10:53:20;22.90;99.90
16958;DHT22;8595;52.542;11.974;2023-09-19T10:55:52;22.80;99.90
16958;DHT22;8595;52.542;11.974;2023-09-19T10:58:29;22.50;99.90
16958;DHT22;8595;52.542;11.974;2023-09-19T11:01:15;22.70;99.90
16958;DHT22;8595;52.542;11.974;2023-09-19T11:03:45;23.10;99.90
16958;DHT22;8595;52.542;11.974;2023-09-19T11:06:45;23.10;99.90
16958;DHT22;8595;52.542;11.974;2023-09-19T11:47:06;21.90;99.90
16958;DHT22;8595;52.542;11.974;2023-09-19T11:49:32;21.80;99.90
16958;DHT22;8595;52.542;11.974;2023-09-19T11:52:01;22.00;99.90
16958;DHT22;8595;52.542;11.974;2023-09-19T11:54:31;22.10;99.90
16958;DHT22;8595;52.542;11.974;2023-09-19T11:56:59;22.10;99.90
16958;DHT22;8595;52.542;11.974;2023-09-19T11:59:28;21.70;99.90
16958;DHT22;8595;52.542;11.974;2023-09-19T12:01:56;21.60;99.90
16958;DHT22;8595;52.542;11.974;2023-09-19T12:04:37;21.70;99.90
16958;DHT22;8595;52.542;11.974;2023-09-19T12:07:07;21.90;99.90
16958;DHT22;8595;52.542;11.974;2023-09-19T12:09:38;21.60;99.90
16958;DHT22;8595;52.542;11.974;2023-09-19T12:12:06;21.70;99.90
16958;DHT22;8595;52.542;11.974;2023-09-19T12:14:38;21.70;99.90
16958;DHT22;8595;52.542;11.974;2023-09-19T12:17:07;21.90;99.90
16958;DHT22;8595;52.542;11.974;2023-09-19T12:19:35;22.00;99.90
16958;DHT22;8595;52.542;11.974;2023-09-19T12:22:03;21.80;99.90
16958;DHT22;8595;52.542;11.974;2023-09-19T12:24:34;21.90;99.90
16958;DHT22;8595;52.542;11.974;2023-09-19T12:27:05;21.40;99.90
16958;DHT22;8595;52.542;11.974;2023-09-19T12:29:41;21.30;99.90
16958;DHT22;8595;52.542;11.974;2023-09-19T12:32:12;21.30;99.90
16958;DHT22;8595;52.542;11.974;2023-09-19T12:34:50;21.50;99.90
16958;DHT22;8595;52.542;11.974;2023-09-19T12:37:22;21.30;99.90
16958;DHT22;8595;52.542;11.974;2023-09-19T12:40:06;21.50;99.90
16958;DHT22;8595;52.542;11.974;2023-09-19T12:42:53;21.50;99.90
16958;DHT22;8595;52.542;11.974;2023-09-19T12:45:22;21.50;99.90
16958;DHT22;8595;52.542;11.974;2023-09-19T12:48:20;21.50;99.90
16958;DHT22;8595;52.542;11.974;2023-09-19T12:51:05;21.30;99.90
16958;DHT22;8595;52.542;11.974;2023-09-19T12:53:46;21.30;99.90
16958;DHT22;8595;52.542;11.974;2023-09-19T12:56:27;21.60;99.90
16958;DHT22;8595;52.542;11.974;2023-09-19T12:59:01;21.70;99.90
16958;DHT22;8595;52.542;11.974;2023-09-19T13:01:34;21.70;99.90
16958;DHT22;8595;52.542;11.974;2023-09-19T13:04:19;22.00;99.90
16958;DHT22;8595;52.542;11.974;2023-09-19T13:06:57;22.00;99.90
16958;DHT22;8595;52.542;11.974;2023-09-19T13:10:05;22.10;99.90
16958;DHT22;8595;52.542;11.974;2023-09-19T13:16:28;22.20;99.90
16958;DHT22;8595;52.542;11.974;2023-09-19T13:25:35;22.30;99.90
16958;DHT22;8595;52.542;11.974;2023-09-19T13:28:43;22.40;99.90
16958;DHT22;8595;52.542;11.974;2023-09-19T13:31:41;22.40;99.90
16958;DHT22;8595;52.542;11.974;2023-09-19T16:19:11;21.10;99.90
16958;DHT22;8595;52.542;11.974;2023-09-19T16:21:38;21.00;99.90
16958;DHT22;8595;52.542;11.974;2023-09-19T16:24:08;20.60;99.90
16958;DHT22;8595;52.542;11.974;2023-09-19T16:26:36;20.50;99.90
16958;DHT22;8595;52.542;11.974;2023-09-19T16:29:03;20.50;99.90
16958;DHT22;8595;52.542;11.974;2023-09-19T16:31:30;20.40;99.90
16958;DHT22;8595;52.542;11.974;2023-09-19T16:33:58;20.50;99.90
16958;DHT22;8595;52.542;11.974;2023-09-19T16:36:27;20.40;99.90
16958;DHT22;8595;52.542;11.974;2023-09-19T16:38:54;20.30;99.90
16958;DHT22;8595;52.542;11.974;2023-09-19T16:41:20;20.40;99.90
16958;DHT22;8595;52.542;11.974;2023-09-19T16:43:47;20.40;99.90
16958;DHT22;8595;52.542;11.974;2023-09-19T16:46:14;20.30;99.90
16958;DHT22;8595;52.542;11.974;2023-09-19T16:48:43;20.30;99.90
16958;DHT22;8595;52.542;11.974;2023-09-19T16:51:12;20.30;99.90
16958;DHT22;8595;52.542;11.974;2023-09-19T16:53:40;20.20;99.90
16958;DHT22;8595;52.542;11.974;2023-09-19T16:56:08;20.20;99.90
16958;DHT22;8595;52.542;11.974;2023-09-19T16:58:36;20.20;99.90
16958;DHT22;8595;52.542;11.974;2023-09-19T17:01:03;20.20;99.90
16958;DHT22;8595;52.542;11.974;2023-09-19T17:03:30;20.10;99.90
16958;DHT22;8595;52.542;11.974;2023-09-19T17:05:59;20.20;99.90
16958;DHT22;8595;52.542;11.974;2023-09-19T17:08:26;20.00;99.90
16958;DHT22;8595;52.542;11.974;2023-09-19T17:11:02;19.90;99.90
16958;DHT22;8595;52.542;11.974;2023-09-19T17:13:29;19.90;99.90
16958;DHT22;8595;52.542;11.974;2023-09-19T17:16:01;19.80;99.90
16958;DHT22;8595;52.542;11.974;2023-09-19T17:18:29;19.80;99.90
16958;DHT22;8595;52.542;11.974;2023-09-19T17:20:57;19.60;99.90
16958;DHT22;8595;52.542;11.974;2023-09-19T17:23:26;19.60;99.90
16958;DHT22;8595;52.542;11.974;2023-09-19T17:26:00;19.50;99.90
16958;DHT22;8595;52.542;11.974;2023-09-19T17:28:28;19.40;99.90
16958;DHT22;8595;52.542;11.974;2023-09-19T17:30:55;19.30;99.90
16958;DHT22;8595;52.542;11.974;2023-09-19T17:33:23;19.30;99.90
16958;DHT22;8595;52.542;11.974;2023-09-19T17:35:52;19.30;99.90
16958;DHT22;8595;52.542;11.974;2023-09-19T17:38:19;19.10;99.90
16958;DHT22;8595;52.542;11.974;2023-09-19T17:40:46;19.20;99.90
16958;DHT22;8595;52.542;11.974;2023-09-19T17:43:16;19.10;99.90
16958;DHT22;8595;52.542;11.974;2023-09-19T17:45:43;19.10;99.90
16958;DHT22;8595;52.542;11.974;2023-09-19T17:48:10;19.00;99.90
16958;DHT22;8595;52.542;11.974;2023-09-19T17:50:37;18.90;99.90
16958;DHT22;8595;52.542;11.974;2023-09-19T17:53:04;18.90;99.90
16958;DHT22;8595;52.542;11.974;2023-09-19T17:55:31;18.90;99.90
16958;DHT22;8595;52.542;11.974;2023-09-19T17:57:58;18.80;99.90
16958;DHT22;8595;52.542;11.974;2023-09-19T18:00:28;18.80;99.90
16958;DHT22;8595;52.542;11.974;2023-09-19T18:02:54;18.80;99.90
16958;DHT22;8595;52.542;11.974;2023-09-19T18:05:22;18.80;99.90
16958;DHT22;8595;52.542;11.974;2023-09-19T18:07:49;18.80;99.90
16958;DHT22;8595;52.542;11.974;2023-09-19T18:10:16;18.80;99.90
16958;DHT22;8595;52.542;11.974;2023-09-19T18:12:42;18.80;99.90
16958;DHT22;8595;52.542;11.974;2023-09-19T18:15:10;18.70;99.90
16958;DHT22;8595;52.542;11.974;2023-09-19T18:17:39;18.70;99.90
16958;DHT22;8595;52.542;11.974;2023-09-19T18:20:06;18.70;99.90
16958;DHT22;8595;52.542;11.974;2023-09-19T18:22:35;18.70;99.90
16958;DHT22;8595;52.542;11.974;2023-09-19T18:25:02;18.60;99.90
16958;DHT22;8595;52.542;11.974;2023-09-19T18:27:29;18.70;99.90
16958;DHT22;8595;52.542;11.974;2023-09-19T18:29:56;18.60;99.90
16958;DHT22;8595;52.542;11.974;2023-09-19T18:32:23;18.60;99.90
16958;DHT22;8595;52.542;11.974;2023-09-19T18:34:51;18.60;99.90
16958;DHT22;8595;52.542;11.974;2023-09-19T18:37:18;18.60;99.90
16958;DHT22;8595;52.542;11.974;2023-09-19T18:39:44;18.60;99.90
16958;DHT22;8595;52.542;11.974;2023-09-19T18:42:11;18.60;99.90
16958;DHT22;8595;52.542;11.974;2023-09-19T18:44:38;18.60;99.90
16958;DHT22;8595;52.542;11.974;2023-09-19T18:47:05;18.50;99.90
16958;DHT22;8595;52.542;11.974;2023-09-19T18:49:31;18.50;99.90
16958;DHT22;8595;52.542;11.974;2023-09-19T18:52:01;18.50;99.90
16958;DHT22;8595;52.542;11.974;2023-09-19T18:54:29;18.50;99.90
16958;DHT22;8595;52.542;11.974;2023-09-19T18:56:56;18.40;99.90
16958;DHT22;8595;52.542;11.974;2023-09-19T18:59:23;18.40;99.90
16958;DHT22;8595;52.542;11.974;2023-09-19T19:01:50;18.40;99.90
16958;DHT22;8595;52.542;11.974;2023-09-19T19:04:18;18.40;99.90
16958;DHT22;8595;52.542;11.974;2023-09-19T19:06:45;18.30;99.90
16958;DHT22;8595;52.542;11.974;2023-09-19T19:09:13;18.30;99.90
16958;DHT22;8595;52.542;11.974;2023-09-19T19:11:40;18.40;99.90
16958;DHT22;8595;52.542;11.974;2023-09-19T19:14:07;18.20;99.90
16958;DHT22;8595;52.542;11.974;2023-09-19T19:16:34;18.20;99.90
16958;DHT22;8595;52.542;11.974;2023-09-19T19:19:08;18.20;99.90
16958;DHT22;8595;52.542;11.974;2023-09-19T19:21:48;18.10;99.90
16958;DHT22;8595;52.542;11.974;2023-09-19T19:24:21;18.10;99.90
16958;DHT22;8595;52.542;11.974;2023-09-19T19:27:00;18.20;99.90
16958;DHT22;8595;52.542;11.974;2023-09-19T19:29:27;18.20;99.90
16958;DHT22;8595;52.542;11.974;2023-09-19T19:31:54;18.10;99.90
16958;DHT22;8595;52.542;11.974;2023-09-19T19:34:20;18.00;99.90
16958;DHT22;8595;52.542;11.974;2023-09-19T19:36:48;17.80;99.90
16958;DHT22;8595;52.542;11.974;2023-09-19T19:39:17;17.50;99.90
16958;DHT22;8595;52.542;11.974;2023-09-19T19:41:44;17.30;99.90
16958;DHT22;8595;52.542;11.974;2023-09-19T19:44:11;17.20;99.90
16958;DHT22;8595;52.542;11.974;2023-09-19T19:46:38;17.00;99.90
16958;DHT22;8595;52.542;11.974;2023-09-19T19:49:05;16.90;99.90
16958;DHT22;8595;52.542;11.974;2023-09-19T19:51:35;17.00;99.90
16958;DHT22;8595;52.542;11.974;2023-09-19T19:54:04;16.90;99.90
16958;DHT22;8595;52.542;11.974;2023-09-19T19:56:33;16.80;99.90
16958;DHT22;8595;52.542;11.974;2023-09-19T19:59:02;16.60;99.90
16958;DHT22;8595;52.542;11.974;2023-09-19T20:01:29;16.50;99.90
16958;DHT22;8595;52.542;11.974;2023-09-19T20:03:57;16.50;99.90
16958;DHT22;8595;52.542;11.974;2023-09-19T20:06:24;16.40;99.90
16958;DHT22;8595;52.542;11.974;2023-09-19T20:08:51;16.50;99.90
16958;DHT22;8595;52.542;11.974;2023-09-19T20:11:18;16.50;99.90
16958;DHT22;8595;52.542;11.974;2023-09-19T20:13:49;16.60;99.90
16958;DHT22;8595;52.542;11.974;2023-09-19T20:16:16;16.50;99.90
16958;DHT22;8595;52.542;11.974;2023-09-19T20:18:43;16.60;99.90
16958;DHT22;8595;52.542;11.974;2023-09-19T20:21:10;16.60;99.90
16958;DHT22;8595;52.542;11.974;2023-09-19T20:23:39;16.90;99.90
16958;DHT22;8595;52.542;11.974;2023-09-19T20:26:09;17.00;99.90
16958;DHT22;8595;52.542;11.974;2023-09-19T20:28:40;17.20;99.90
16958;DHT22;8595;52.542;11.974;2023-09-19T20:31:09;17.20;99.90
16958;DHT22;8595;52.542;11.974;2023-09-19T20:33:40;17.30;99.90
16958;DHT22;8595;52.542;11.974;2023-09-19T20:36:07;17.40;99.90
16958;DHT22;8595;52.542;11.974;2023-09-19T20:48:41;17.70;99.90
16958;DHT22;8595;52.542;11.974;2023-09-19T20:51:10;17.70;99.90
16958;DHT22;8595;52.542;11.974;2023-09-19T20:53:39;17.80;99.90
16958;DHT22;8595;52.542;11.974;2023-09-19T20:56:06;17.80;99.90
16958;DHT22;8595;52.542;11.974;2023-09-19T20:58:35;17.80;99.90
16958;DHT22;8595;52.542;11.974;2023-09-19T21:01:04;17.80;99.90
16958;DHT22;8595;52.542;11.974;2023-09-19T21:03:31;17.90;99.90
16958;DHT22;8595;52.542;11.974;2023-09-19T21:06:06;17.80;99.90
16958;DHT22;8595;52.542;11.974;2023-09-19T21:08:34;17.80;99.90
16958;DHT22;8595;52.542;11.974;2023-09-19T21:11:10;17.80;99.90
16958;DHT22;8595;52.542;11.974;2023-09-19T21:13:38;17.80;99.90
16958;DHT22;8595;52.542;11.974;2023-09-19T21:16:05;17.80;99.90
16958;DHT22;8595;52.542;11.974;2023-09-19T21:18:38;17.70;99.90
16958;DHT22;8595;52.542;11.974;2023-09-19T21:21:13;17.60;99.90
16958;DHT22;8595;52.542;11.974;2023-09-19T21:23:43;17.60;99.90
16958;DHT22;8595;52.542;11.974;2023-09-19T21:26:10;17.60;99.90
16958;DHT22;8595;52.542;11.974;2023-09-19T21:28:42;17.50;99.90
16958;DHT22;8595;52.542;11.974;2023-09-19T21:31:18;17.50;99.90
16958;DHT22;8595;52.542;11.974;2023-09-19T21:33:48;17.40;99.90
16958;DHT22;8595;52.542;11.974;2023-09-19T21:36:37;17.30;99.90
16958;DHT22;8595;52.542;11.974;2023-09-19T22:09:31;17.00;99.90
16958;DHT22;8595;52.542;11.974;2023-09-19T22:11:58;16.90;99.90
16958;DHT22;8595;52.542;11.974;2023-09-19T22:14:26;16.90;99.90
16958;DHT22;8595;52.542;11.974;2023-09-19T22:16:55;16.90;99.90
16958;DHT22;8595;52.542;11.974;2023-09-19T22:19:25;17.00;99.90
16958;DHT22;8595;52.542;11.974;2023-09-19T22:21:52;17.00;99.90
16958;DHT22;8595;52.542;11.974;2023-09-19T22:24:18;17.00;99.90